createdAt,value
2019-04-21T00:00:29.725Z,45.50
2019-04-21T00:10:56.556Z,45.50
2019-04-21T00:20:49.621Z,45.50
2019-04-21T00:31:08.093Z,46.30
2019-04-21T00:41:19.599Z,46.80
2019-04-21T00:51:33.378Z,46.90
2019-04-21T01:01:32.899Z,47.90
2019-04-21T01:11:44.440Z,47.70
2019-04-21T01:21:26.266Z,47.80
2019-04-21T01:31:48.279Z,47.70
2019-04-21T01:41:58.839Z,48.60
2019-04-21T01:52:17.914Z,48.60
2019-04-21T02:02:10.665Z,48.50
2019-04-21T02:12:30.270Z,48.90
2019-04-21T02:22:35.242Z,49.00
2019-04-21T02:32:48.033Z,48.80
2019-04-21T02:53:01.272Z,49.00
2019-04-21T03:03:29.854Z,49.20
2019-04-21T03:23:46.737Z,50.20
2019-04-21T03:44:04.463Z,50.80
2019-04-21T03:54:00.017Z,50.70
2019-04-21T04:24:42.647Z,50.80
2019-04-21T04:34:47.758Z,50.50
2019-04-21T04:44:57.611Z,50.70
2019-04-21T04:54:54.496Z,50.70
2019-04-21T05:05:07.593Z,51.00
2019-04-21T05:24:59.488Z,51.10
2019-04-21T05:35:14.518Z,51.20
2019-04-21T05:45:29.401Z,51.00
2019-04-21T05:55:40.707Z,50.70
2019-04-21T06:05:55.558Z,50.20
2019-04-21T06:15:50.271Z,50.10
2019-04-21T06:46:25.857Z,49.50
2019-04-21T06:56:36.562Z,49.00
2019-04-21T07:06:45.655Z,48.80
2019-04-21T07:16:48.067Z,48.40
2019-04-21T07:26:51.073Z,47.50
2019-04-21T07:37:00.856Z,47.30
2019-04-21T07:46:56.378Z,46.90
2019-04-21T07:57:05.424Z,46.50
2019-04-21T08:07:29.155Z,46.20
2019-04-21T08:17:26.671Z,46.10
2019-04-21T08:27:38.503Z,45.60
2019-04-21T08:37:40.312Z,45.30
2019-04-21T08:47:45.842Z,45.00
2019-04-21T08:58:25.324Z,44.40
2019-04-21T09:08:26.085Z,44.10
2019-04-21T09:18:22.868Z,43.60
2019-04-21T09:28:31.276Z,43.40
2019-04-21T09:38:34.145Z,43.30
2019-04-21T09:48:45.569Z,42.50
2019-04-21T09:58:44.615Z,42.30
2019-04-21T10:08:50.452Z,41.20
2019-04-21T10:18:54.803Z,39.90
2019-04-21T10:29:08.550Z,38.10
2019-04-21T10:39:07.599Z,35.60
2019-04-21T10:49:12.952Z,33.70
2019-04-21T10:59:18.466Z,29.80
2019-04-21T11:09:24.114Z,28.40
2019-04-21T11:19:30.709Z,27.00
2019-04-21T11:29:37.157Z,25.30
2019-04-21T11:39:51.940Z,23.80
2019-04-21T11:49:49.558Z,22.90
2019-04-21T11:59:55.527Z,20.40
2019-04-21T12:10:01.648Z,20.80
2019-04-21T12:20:08.557Z,19.60
2019-04-21T12:30:15.551Z,19.60
2019-04-21T12:40:21.256Z,19.10
2019-04-21T12:50:27.778Z,18.80
2019-04-21T13:00:33.450Z,18.30
2019-04-21T13:10:40.124Z,18.00
2019-04-21T13:20:46.457Z,17.40
2019-04-21T13:30:51.800Z,16.90
2019-04-21T13:41:25.799Z,16.50
2019-04-21T13:51:17.613Z,16.30
2019-04-21T14:01:23.547Z,16.10
2019-04-21T14:11:29.323Z,16.60
2019-04-21T14:21:34.756Z,16.80
2019-04-21T14:31:40.254Z,16.00
2019-04-21T14:41:46.402Z,15.40
2019-04-21T14:51:56.902Z,15.90
2019-04-21T15:02:02.422Z,16.40
2019-04-21T15:12:08.027Z,16.60
2019-04-21T15:22:14.518Z,15.50
2019-04-21T15:32:19.889Z,12.70
2019-04-21T15:42:26.331Z,11.10
2019-04-21T15:52:31.907Z,11.40
2019-04-21T16:02:38.056Z,13.40
2019-04-21T16:12:43.870Z,15.00
2019-04-21T16:22:50.616Z,15.50
2019-04-21T16:32:56.464Z,16.60
2019-04-21T16:43:01.963Z,17.60
2019-04-21T16:53:14.383Z,18.50
2019-04-21T17:03:19.986Z,19.60
2019-04-21T17:13:25.324Z,19.70
2019-04-21T17:23:31.465Z,20.30
2019-04-21T17:33:37.131Z,20.90
2019-04-21T17:43:43.659Z,21.80
2019-04-21T17:54:13.549Z,21.80
2019-04-21T18:04:31.012Z,22.30
2019-04-21T18:14:22.062Z,22.90
2019-04-21T18:24:38.932Z,23.50
2019-04-21T18:35:01.566Z,24.40
2019-04-21T18:46:02.187Z,25.20
2019-04-21T18:55:46.932Z,25.80
2019-04-21T19:05:54.435Z,27.00
2019-04-21T19:16:31.274Z,27.80
2019-04-21T19:26:30.057Z,28.40
2019-04-21T19:36:11.127Z,29.50
2019-04-21T19:46:33.316Z,31.20
2019-04-21T19:56:24.122Z,32.40
2019-04-21T20:06:45.396Z,33.60
2019-04-21T20:16:54.763Z,35.10
2019-04-21T20:26:58.620Z,36.40
2019-04-21T20:37:14.821Z,36.70
2019-04-21T20:47:11.417Z,37.20
2019-04-21T20:57:21.924Z,37.80
2019-04-21T21:17:50.288Z,40.00
2019-04-21T21:27:41.844Z,41.00
2019-04-21T21:37:55.243Z,41.10
2019-04-21T21:48:01.042Z,41.00
2019-04-21T21:57:55.885Z,41.10
2019-04-21T22:07:58.377Z,41.00
2019-04-21T22:18:24.635Z,41.30
2019-04-21T22:28:11.686Z,41.40
2019-04-21T22:38:37.606Z,41.60
2019-04-21T22:48:27.279Z,41.80
2019-04-21T22:58:35.724Z,42.20
2019-04-21T23:08:41.762Z,42.30
2019-04-21T23:19:09.621Z,42.90
2019-04-21T23:29:13.951Z,43.30
2019-04-21T23:39:01.520Z,43.60
2019-04-21T23:49:19.292Z,44.10
2019-04-21T23:59:16.157Z,44.60
